Time;durP1;ratioP1;P1;durP2;ratioP2;P2;SDS_P1;SDS_P2;PMS_P1;PMS_P2;Temp;Humidity;BMP_temperature;BMP_pressure;BME280_temperature;BME280_humidity;BME280_pressure;Samples;Min_cycle;Max_cycle;Signal;HPM_P1;HPM_P2
2022/01/14 00:01:41;;;;;;;14.40;8.67;;;3.80;99.90;;;;;;5051415;28;20541;-78
2022/01/14 00:04:08;;;;;;;14.00;7.87;;;3.80;99.90;;;;;;5035226;28;20174;-76
2022/01/14 00:06:37;;;;;;;15.83;8.70;;;3.90;99.90;;;;;;5031377;28;20178;-75
2022/01/14 00:09:06;;;;;;;13.80;8.50;;;3.90;99.90;;;;;;5015735;28;20180;-76
2022/01/14 00:11:44;;;;;;;15.47;8.50;;;4.00;99.90;;;;;;5031613;28;20216;-79
2022/01/14 00:14:22;;;;;;;14.47;8.50;;;4.10;99.90;;;;;;5016369;28;20254;-75
2022/01/14 00:16:49;;;;;;;16.13;7.60;;;4.10;99.90;;;;;;5001655;28;20648;-76
2022/01/14 00:19:15;;;;;;;15.40;8.50;;;4.10;99.90;;;;;;5031105;28;20174;-76
2022/01/14 00:21:43;;;;;;;14.20;7.83;;;4.00;99.90;;;;;;5031044;28;20185;-78
2022/01/14 00:31:38;;;;;;;13.30;8.50;;;3.90;99.90;;;;;;5032473;28;20576;-76
2022/01/14 00:34:53;;;;;;;14.27;8.33;;;4.10;99.90;;;;;;5014492;28;20301;-78
2022/01/14 00:37:19;;;;;;;12.13;7.90;;;4.10;99.90;;;;;;5039712;28;20700;-76
2022/01/14 00:39:46;;;;;;;14.13;8.73;;;3.60;99.90;;;;;;5034140;28;20487;-78
2022/01/14 00:42:13;;;;;;;14.17;8.33;;;3.70;99.90;;;;;;5034085;28;20181;-78
2022/01/14 00:44:38;;;;;;;16.93;8.93;;;3.80;99.90;;;;;;5017398;28;20722;-77
2022/01/14 00:47:05;;;;;;;16.53;8.40;;;3.60;99.90;;;;;;5034323;28;20173;-76
2022/01/14 00:49:31;;;;;;;13.20;7.97;;;3.50;99.90;;;;;;5050486;28;20219;-77
2022/01/14 00:51:57;;;;;;;15.87;8.43;;;3.60;99.90;;;;;;5050502;28;20679;-77
2022/01/14 00:54:25;;;;;;;13.53;8.37;;;3.50;99.90;;;;;;5016011;28;20219;-77
2022/01/14 00:59:29;;;;;;;13.40;8.37;;;3.70;99.90;;;;;;5034900;28;20587;-75
2022/01/14 01:01:59;;;;;;;15.93;8.90;;;3.80;99.90;;;;;;5017183;28;20188;-76
2022/01/14 01:04:31;;;;;;;15.20;9.40;;;3.70;99.90;;;;;;5043175;28;20192;-79
2022/01/14 01:06:58;;;;;;;16.83;8.93;;;3.90;99.90;;;;;;5035984;28;20178;-76
2022/01/14 01:09:26;;;;;;;14.00;8.23;;;3.90;99.90;;;;;;5030145;28;20257;-76
2022/01/14 01:12:06;;;;;;;17.50;9.10;;;3.50;99.90;;;;;;5035255;28;20256;-77
2022/01/14 01:14:42;;;;;;;15.90;8.03;;;2.80;99.90;;;;;;5030822;28;20201;-78
2022/01/14 01:17:08;;;;;;;14.37;9.00;;;2.90;99.90;;;;;;5030318;28;20586;-75
2022/01/14 01:19:34;;;;;;;15.50;9.07;;;3.40;99.90;;;;;;5033830;28;20195;-76
2022/01/14 01:22:01;;;;;;;17.10;9.63;;;3.70;99.90;;;;;;5044568;28;20224;-77
2022/01/14 01:24:27;;;;;;;17.13;9.40;;;3.80;99.90;;;;;;5030204;28;20182;-78
2022/01/14 01:26:53;;;;;;;17.00;9.13;;;3.90;99.90;;;;;;5030411;28;20739;-77
2022/01/14 01:31:54;;;;;;;15.70;9.87;;;3.90;99.90;;;;;;5034494;28;20273;-76
2022/01/14 01:34:24;;;;;;;18.70;9.93;;;3.90;99.90;;;;;;5033375;28;20205;-75
2022/01/14 01:36:53;;;;;;;19.17;10.00;;;3.90;99.90;;;;;;5017414;28;20178;-79
2022/01/14 01:39:25;;;;;;;19.53;9.90;;;3.70;99.90;;;;;;5041366;28;20170;-77
2022/01/14 01:41:57;;;;;;;16.17;9.70;;;3.50;99.90;;;;;;5013451;28;20226;-78
2022/01/14 01:44:25;;;;;;;18.87;10.60;;;3.30;99.90;;;;;;5030007;28;20174;-76
2022/01/14 01:46:53;;;;;;;15.90;9.40;;;3.30;99.90;;;;;;5028600;28;20185;-75
2022/01/14 01:49:22;;;;;;;16.50;9.97;;;3.40;99.90;;;;;;5049731;28;20179;-78
2022/01/14 01:51:50;;;;;;;16.30;10.03;;;3.60;99.90;;;;;;5051341;28;20205;-77
2022/01/14 01:54:17;;;;;;;20.50;10.37;;;3.40;99.90;;;;;;5051002;28;20212;-76
2022/01/14 01:56:44;;;;;;;21.00;11.90;;;3.60;99.90;;;;;;5016614;28;20186;-76
2022/01/14 01:59:10;;;;;;;17.67;10.80;;;3.80;99.90;;;;;;5049927;28;20635;-78
2022/01/14 02:01:39;;;;;;;20.77;12.13;;;3.70;99.90;;;;;;5016791;28;20183;-75
2022/01/14 02:04:05;;;;;;;18.47;11.13;;;3.70;99.90;;;;;;5051127;28;20804;-77
2022/01/14 02:06:32;;;;;;;21.53;11.77;;;3.70;99.90;;;;;;5032605;28;20536;-78
2022/01/14 02:08:58;;;;;;;18.63;11.47;;;3.70;99.90;;;;;;5049540;28;20264;-78
2022/01/14 02:11:24;;;;;;;22.30;11.30;;;3.80;99.90;;;;;;5049191;28;20255;-76
2022/01/14 02:13:53;;;;;;;23.37;12.23;;;3.70;99.90;;;;;;5021313;28;20209;-78
2022/01/14 02:16:32;;;;;;;21.40;12.27;;;3.50;99.90;;;;;;5029323;28;20276;-78
2022/01/14 02:19:14;;;;;;;19.30;11.13;;;3.40;99.90;;;;;;5015103;28;20269;-79
2022/01/14 02:27:13;;;;;;;22.77;11.73;;;3.50;99.90;;;;;;5029496;28;20654;-76
2022/01/14 02:29:39;;;;;;;19.97;12.23;;;3.40;99.90;;;;;;5013936;28;20235;-76
2022/01/14 02:32:07;;;;;;;19.57;11.27;;;3.40;99.90;;;;;;5029583;28;20189;-76
2022/01/14 02:34:33;;;;;;;19.83;12.17;;;3.50;99.90;;;;;;5031018;28;20198;-77
2022/01/14 02:36:59;;;;;;;20.73;11.03;;;3.20;99.90;;;;;;4996626;28;20646;-75
2022/01/14 02:39:25;;;;;;;19.23;11.77;;;2.70;99.90;;;;;;4996638;28;20265;-77
2022/01/14 02:41:52;;;;;;;20.33;12.13;;;2.50;99.90;;;;;;5031514;28;20169;-76
2022/01/14 02:44:26;;;;;;;16.33;10.77;;;2.50;99.90;;;;;;5019861;28;20186;-76
2022/01/14 02:46:56;;;;;;;22.13;11.33;;;2.90;99.90;;;;;;5038776;28;20177;-78
2022/01/14 02:49:29;;;;;;;20.37;11.67;;;3.20;99.90;;;;;;5029150;28;20174;-76
2022/01/14 02:51:57;;;;;;;21.07;11.83;;;3.30;99.90;;;;;;5029278;28;20518;-79
2022/01/14 02:54:38;;;;;;;18.77;11.43;;;3.30;99.90;;;;;;5012319;28;20202;-78
2022/01/14 02:57:08;;;;;;;22.73;11.80;;;3.30;99.90;;;;;;5029702;28;20234;-76
2022/01/14 02:59:35;;;;;;;23.63;12.13;;;3.30;99.90;;;;;;5029336;28;20198;-76
2022/01/14 03:02:03;;;;;;;19.63;11.40;;;3.00;99.90;;;;;;5012799;28;20174;-78
2022/01/14 03:04:32;;;;;;;19.07;11.63;;;3.10;99.90;;;;;;5014268;28;20173;-77
2022/01/14 03:06:58;;;;;;;23.23;12.17;;;3.20;99.90;;;;;;5049900;28;20189;-78
2022/01/14 03:09:24;;;;;;;21.47;12.43;;;3.30;99.90;;;;;;5049344;28;20177;-76
2022/01/14 03:11:55;;;;;;;18.47;11.40;;;3.30;99.90;;;;;;5048572;28;20738;-76
2022/01/14 03:14:25;;;;;;;21.70;12.90;;;3.20;99.90;;;;;;5048905;28;20205;-76
2022/01/14 03:16:53;;;;;;;17.63;10.17;;;3.10;99.90;;;;;;5037920;28;20174;-78
2022/01/14 03:19:25;;;;;;;18.10;11.70;;;3.20;99.90;;;;;;5032836;28;20216;-77
2022/01/14 03:22:19;;;;;;;19.90;10.23;;;3.20;99.90;;;;;;5015969;28;20915;-76
2022/01/14 03:27:12;;;;;;;17.40;10.73;;;3.20;99.90;;;;;;5032998;28;20707;-78
2022/01/14 03:29:38;;;;;;;20.43;11.50;;;3.30;99.90;;;;;;5016329;28;20548;-75
2022/01/14 03:32:04;;;;;;;22.27;12.07;;;3.40;99.90;;;;;;4999926;28;20181;-77
2022/01/14 03:34:31;;;;;;;17.93;10.83;;;3.40;99.90;;;;;;5015948;28;20208;-79
2022/01/14 03:36:57;;;;;;;16.80;9.93;;;3.40;99.90;;;;;;5032140;28;20178;-76
2022/01/14 03:39:23;;;;;;;18.47;10.97;;;3.30;99.90;;;;;;5032136;28;20185;-76
2022/01/14 03:41:49;;;;;;;17.03;10.27;;;3.30;99.90;;;;;;4999006;28;20265;-75
2022/01/14 03:44:15;;;;;;;15.53;10.00;;;3.20;99.90;;;;;;5015399;28;20272;-77
2022/01/14 03:46:42;;;;;;;20.23;10.80;;;3.20;99.90;;;;;;4999048;28;20186;-76
2022/01/14 03:49:07;;;;;;;19.13;10.97;;;3.30;99.90;;;;;;4999650;28;20196;-77
2022/01/14 03:51:33;;;;;;;18.77;11.73;;;3.40;99.90;;;;;;5031486;28;20178;-78
2022/01/14 03:53:59;;;;;;;18.23;10.93;;;3.40;99.90;;;;;;5014934;28;20193;-79
2022/01/14 03:56:28;;;;;;;17.10;9.67;;;3.40;99.90;;;;;;4998985;28;20174;-76
2022/01/14 03:58:54;;;;;;;20.50;10.60;;;2.80;99.90;;;;;;5015322;28;20178;-78
2022/01/14 04:01:21;;;;;;;15.90;10.33;;;2.10;99.90;;;;;;5032186;28;20170;-77
2022/01/14 04:03:50;;;;;;;18.57;10.57;;;1.90;99.90;;;;;;5031528;28;20678;-79
2022/01/14 04:06:17;;;;;;;15.43;10.13;;;2.10;99.90;;;;;;5031352;28;20644;-75
2022/01/14 04:08:43;;;;;;;22.87;10.60;;;2.00;99.90;;;;;;5032921;28;20220;-79
2022/01/14 04:11:10;;;;;;;19.70;10.67;;;2.10;99.90;;;;;;5033178;28;20174;-75
2022/01/14 04:16:07;;;;;;;16.67;10.50;;;2.20;99.90;;;;;;5033069;28;20296;-79
2022/01/14 04:18:33;;;;;;;17.17;9.50;;;2.60;99.90;;;;;;5048313;28;20664;-79
2022/01/14 04:20:59;;;;;;;16.10;10.53;;;2.80;99.90;;;;;;5030217;28;20182;-78
2022/01/14 04:23:25;;;;;;;19.27;9.97;;;3.10;99.90;;;;;;5051573;28;20185;-78
2022/01/14 04:25:53;;;;;;;19.23;9.63;;;3.20;99.90;;;;;;5051250;28;20177;-76
2022/01/14 04:28:21;;;;;;;18.33;9.80;;;3.30;99.90;;;;;;5034468;28;20531;-75
2022/01/14 04:30:48;;;;;;;21.43;11.03;;;3.30;99.90;;;;;;5035012;28;20303;-79
2022/01/14 04:33:14;;;;;;;20.07;10.40;;;3.30;99.90;;;;;;5052300;28;20677;-75
2022/01/14 04:35:40;;;;;;;16.73;10.13;;;3.30;99.90;;;;;;5034203;28;20801;-77
2022/01/14 04:38:06;;;;;;;19.13;10.57;;;3.30;99.90;;;;;;5017710;28;20215;-76
2022/01/14 04:40:33;;;;;;;19.10;10.73;;;3.30;99.90;;;;;;5050960;28;20176;-76
2022/01/14 04:43:00;;;;;;;18.07;11.43;;;3.20;99.90;;;;;;5050335;28;20184;-75
2022/01/14 04:48:02;;;;;;;16.90;9.93;;;3.30;99.90;;;;;;5052159;28;20637;-76
2022/01/14 04:50:28;;;;;;;16.23;10.50;;;3.30;99.90;;;;;;5034082;28;20173;-80
2022/01/14 04:52:54;;;;;;;16.27;10.10;;;3.30;99.90;;;;;;5050481;28;20645;-76
2022/01/14 04:55:22;;;;;;;23.57;10.93;;;3.40;99.90;;;;;;5017349;28;20212;-76
2022/01/14 04:57:49;;;;;;;16.33;9.83;;;3.30;99.90;;;;;;5017953;28;20259;-76
2022/01/14 05:00:18;;;;;;;17.67;10.50;;;3.40;99.90;;;;;;5050694;28;20169;-77
2022/01/14 05:02:44;;;;;;;17.87;9.87;;;3.30;99.90;;;;;;5033735;28;20169;-79
2022/01/14 05:05:11;;;;;;;15.43;9.10;;;3.30;99.90;;;;;;5050784;28;20243;-79
2022/01/14 05:07:38;;;;;;;17.60;9.50;;;3.00;99.90;;;;;;5033946;28;20181;-75
2022/01/14 05:12:40;;;;;;;16.40;10.00;;;2.10;99.90;;;;;;5051492;28;20612;-76
2022/01/14 05:15:07;;;;;;;15.93;10.17;;;2.00;99.90;;;;;;5033453;28;20237;-79
2022/01/14 05:17:34;;;;;;;16.83;10.03;;;2.30;99.90;;;;;;5033763;28;20172;-78
2022/01/14 05:20:00;;;;;;;16.33;10.30;;;2.10;99.90;;;;;;5044321;28;20184;-75
2022/01/14 05:22:26;;;;;;;18.80;10.23;;;2.60;99.90;;;;;;5030487;28;20166;-75
2022/01/14 05:24:52;;;;;;;16.13;10.33;;;2.90;99.90;;;;;;5030021;28;20257;-78
2022/01/14 05:27:18;;;;;;;17.67;10.07;;;3.10;99.90;;;;;;5030315;28;20533;-78
2022/01/14 05:29:44;;;;;;;14.87;9.40;;;3.20;99.90;;;;;;5030220;28;20185;-75
2022/01/14 05:32:13;;;;;;;16.17;9.87;;;3.00;99.90;;;;;;5031793;28;20204;-78
2022/01/14 05:34:40;;;;;;;15.33;9.80;;;3.30;99.90;;;;;;5030228;28;20645;-79
2022/01/14 05:37:08;;;;;;;17.50;9.87;;;3.40;99.90;;;;;;5029884;28;20590;-75
2022/01/14 05:39:34;;;;;;;17.97;10.30;;;3.40;99.90;;;;;;5030297;28;20170;-77
2022/01/14 05:42:01;;;;;;;17.30;10.40;;;3.40;99.90;;;;;;5029534;28;20169;-77
2022/01/14 05:44:28;;;;;;;18.07;10.37;;;3.40;99.90;;;;;;5029749;28;20243;-78
2022/01/14 05:46:55;;;;;;;17.33;10.80;;;3.40;99.90;;;;;;5029577;28;20209;-77
2022/01/14 05:49:22;;;;;;;18.27;9.50;;;3.40;99.90;;;;;;5029663;28;20540;-75
2022/01/14 05:51:49;;;;;;;17.40;10.27;;;3.30;99.90;;;;;;5029635;28;20177;-76
2022/01/14 05:54:16;;;;;;;15.57;10.27;;;3.30;99.90;;;;;;5013334;28;20213;-76
2022/01/14 05:56:42;;;;;;;16.00;9.50;;;3.10;99.90;;;;;;5029706;28;20193;-78
2022/01/14 05:59:08;;;;;;;13.37;8.60;;;2.80;99.90;;;;;;5030413;28;20176;-76
2022/01/14 06:01:36;;;;;;;17.13;9.43;;;3.00;99.90;;;;;;5032806;28;20169;-76
2022/01/14 06:04:03;;;;;;;18.13;9.40;;;3.10;99.90;;;;;;5049668;28;20179;-79
2022/01/14 06:06:30;;;;;;;17.50;10.10;;;3.10;99.90;;;;;;5045152;28;20264;-77
2022/01/14 06:08:57;;;;;;;19.37;9.87;;;3.10;99.90;;;;;;5034164;28;20197;-78
2022/01/14 06:11:23;;;;;;;24.37;12.07;;;3.10;99.90;;;;;;5032315;28;20231;-77
2022/01/14 06:13:49;;;;;;;17.03;10.03;;;3.20;99.90;;;;;;5029893;28;20178;-76
2022/01/14 06:16:15;;;;;;;18.67;10.83;;;2.70;99.90;;;;;;5010756;28;20232;-78
2022/01/14 06:18:41;;;;;;;16.13;10.63;;;2.70;99.90;;;;;;5031870;28;20170;-76
2022/01/14 06:21:07;;;;;;;19.70;9.73;;;2.60;99.90;;;;;;5031094;28;20232;-78
2022/01/14 06:23:33;;;;;;;20.17;10.73;;;2.90;99.90;;;;;;5036873;28;20177;-78
2022/01/14 06:26:00;;;;;;;17.13;9.63;;;2.90;99.90;;;;;;5033145;28;20205;-76
2022/01/14 06:28:26;;;;;;;17.43;9.23;;;3.10;99.90;;;;;;5032169;28;20260;-77
2022/01/14 06:30:52;;;;;;;14.93;9.23;;;3.10;99.90;;;;;;5037642;28;20240;-75
2022/01/14 06:33:18;;;;;;;20.50;10.37;;;3.20;99.90;;;;;;5037442;28;20181;-78
2022/01/14 06:35:43;;;;;;;19.47;9.93;;;3.30;99.90;;;;;;5011146;28;20676;-77
2022/01/14 06:38:10;;;;;;;16.50;10.10;;;3.20;99.90;;;;;;5015986;28;20181;-78
2022/01/14 06:40:37;;;;;;;19.70;9.93;;;3.20;99.90;;;;;;5033713;28;20182;-76
2022/01/14 06:43:04;;;;;;;16.63;9.90;;;3.10;99.90;;;;;;5026198;28;20185;-81
2022/01/14 06:45:32;;;;;;;17.60;10.10;;;3.00;99.90;;;;;;5014644;28;20193;-78
2022/01/14 06:47:58;;;;;;;18.53;10.87;;;3.00;99.90;;;;;;5050432;28;20214;-78
2022/01/14 06:50:25;;;;;;;17.67;10.10;;;2.90;99.90;;;;;;5030835;28;20188;-79
2022/01/14 06:52:51;;;;;;;16.37;10.33;;;2.90;99.90;;;;;;5032013;28;20567;-76
2022/01/14 06:55:17;;;;;;;19.17;10.83;;;2.90;99.90;;;;;;5034526;28;20205;-79
2022/01/14 06:57:43;;;;;;;18.00;10.10;;;2.80;99.90;;;;;;5018778;28;20597;-76
2022/01/14 07:00:12;;;;;;;16.50;9.43;;;2.80;99.90;;;;;;5035243;28;20299;-78
2022/01/14 07:02:38;;;;;;;18.13;10.17;;;2.80;99.90;;;;;;5051738;28;20185;-79
2022/01/14 07:05:05;;;;;;;15.93;9.83;;;2.80;99.90;;;;;;5018193;28;20676;-79
2022/01/14 07:07:31;;;;;;;17.13;9.93;;;2.90;99.90;;;;;;5035597;28;20358;-78
2022/01/14 07:09:57;;;;;;;18.50;9.03;;;2.90;99.90;;;;;;5018238;28;20194;-77
2022/01/14 07:12:32;;;;;;;16.83;10.07;;;2.90;99.90;;;;;;5018470;28;20779;-76
2022/01/14 07:14:59;;;;;;;13.47;9.03;;;2.90;99.90;;;;;;5051128;28;20220;-78
2022/01/14 07:17:26;;;;;;;18.33;10.43;;;2.80;99.90;;;;;;5034693;28;20203;-77
2022/01/14 07:19:54;;;;;;;14.47;9.17;;;2.90;99.90;;;;;;5051294;28;20177;-78
2022/01/14 07:22:21;;;;;;;16.20;9.90;;;2.80;99.90;;;;;;5035303;28;20177;-78
2022/01/14 07:24:47;;;;;;;17.43;9.77;;;2.90;99.90;;;;;;5051492;28;20185;-76
2022/01/14 07:27:14;;;;;;;15.50;8.70;;;2.90;99.90;;;;;;5002017;28;20691;-75
2022/01/14 07:29:40;;;;;;;20.33;10.60;;;2.80;99.90;;;;;;5034458;28;20552;-76
2022/01/14 07:32:07;;;;;;;15.13;9.17;;;2.80;99.90;;;;;;5052219;28;20235;-76
2022/01/14 07:34:33;;;;;;;18.27;9.90;;;2.90;99.90;;;;;;5034335;28;20570;-76
2022/01/14 07:36:59;;;;;;;14.80;8.97;;;3.00;99.90;;;;;;5034588;28;20228;-78
2022/01/14 07:39:25;;;;;;;15.90;8.90;;;3.00;99.90;;;;;;5034293;28;20169;-76
2022/01/14 07:41:52;;;;;;;16.90;9.20;;;3.00;99.90;;;;;;5050181;28;20238;-79
2022/01/14 07:44:18;;;;;;;19.47;9.67;;;3.00;99.90;;;;;;5050705;28;20219;-79
2022/01/14 07:46:44;;;;;;;15.97;9.40;;;3.10;99.90;;;;;;5050438;28;20181;-76
2022/01/14 07:49:10;;;;;;;16.13;9.77;;;3.10;99.90;;;;;;5051931;28;20547;-78
2022/01/14 07:51:36;;;;;;;15.20;9.83;;;3.10;99.90;;;;;;5034103;28;20173;-75
2022/01/14 07:54:05;;;;;;;19.07;9.90;;;3.20;99.90;;;;;;5033803;28;20308;-78
2022/01/14 07:56:36;;;;;;;17.17;9.83;;;3.00;99.90;;;;;;5033132;28;20527;-76
2022/01/14 07:59:04;;;;;;;15.60;9.03;;;2.90;99.90;;;;;;5034046;28;20219;-75
2022/01/14 08:01:33;;;;;;;14.90;9.03;;;2.90;99.90;;;;;;5028708;28;20575;-75
2022/01/14 08:04:01;;;;;;;15.27;9.70;;;3.00;99.90;;;;;;5016066;28;20184;-79
2022/01/14 08:06:31;;;;;;;13.63;9.37;;;3.00;99.90;;;;;;5014491;28;20189;-76
2022/01/14 08:08:57;;;;;;;15.67;9.20;;;3.00;99.90;;;;;;5049974;28;20268;-78
2022/01/14 08:11:23;;;;;;;16.73;9.97;;;3.00;99.90;;;;;;5050543;28;20542;-78
2022/01/14 08:13:49;;;;;;;14.53;8.83;;;2.80;99.90;;;;;;5034299;28;20219;-75
2022/01/14 08:16:14;;;;;;;17.07;9.93;;;2.80;99.90;;;;;;5041543;28;20213;-76
2022/01/14 08:18:40;;;;;;;21.97;11.33;;;3.00;99.90;;;;;;4985810;28;20181;-77
2022/01/14 08:21:06;;;;;;;20.77;9.67;;;2.90;99.90;;;;;;5022328;28;20190;-79
2022/01/14 08:23:32;;;;;;;14.90;9.40;;;2.90;99.90;;;;;;5015101;28;20301;-75
2022/01/14 08:25:58;;;;;;;16.57;9.33;;;2.70;99.90;;;;;;5014656;28;20614;-79
2022/01/14 08:28:25;;;;;;;13.67;9.23;;;2.80;99.90;;;;;;5030647;28;20205;-74
2022/01/14 08:30:51;;;;;;;14.17;8.80;;;3.20;99.90;;;;;;5020069;28;20177;-78
2022/01/14 08:33:18;;;;;;;16.50;9.80;;;3.30;99.90;;;;;;5034506;28;20188;-79
2022/01/14 08:35:44;;;;;;;17.70;9.37;;;3.30;99.90;;;;;;5037852;28;20894;-77
2022/01/14 08:38:10;;;;;;;16.67;9.93;;;3.40;99.90;;;;;;5030141;28;20181;-77
2022/01/14 08:40:36;;;;;;;18.23;10.63;;;3.30;99.90;;;;;;5030254;28;20211;-78
2022/01/14 08:43:03;;;;;;;20.37;10.40;;;3.30;99.90;;;;;;5030177;28;20178;-76
2022/01/14 08:45:29;;;;;;;15.03;9.47;;;3.30;99.90;;;;;;5013945;28;20231;-75
2022/01/14 08:47:55;;;;;;;18.57;10.17;;;3.30;99.90;;;;;;5013926;28;20181;-79
2022/01/14 08:50:24;;;;;;;18.03;10.33;;;3.40;99.90;;;;;;5032269;28;20177;-75
2022/01/14 08:52:50;;;;;;;17.37;10.23;;;3.40;99.90;;;;;;5020441;28;20696;-76
2022/01/14 08:55:17;;;;;;;19.83;10.60;;;3.60;99.90;;;;;;5029362;28;20201;-79
2022/01/14 08:57:47;;;;;;;17.80;10.07;;;3.40;99.90;;;;;;5016871;28;20664;-75
2022/01/14 09:00:15;;;;;;;21.77;10.70;;;3.40;99.90;;;;;;5015761;28;20188;-74
2022/01/14 09:02:41;;;;;;;18.43;9.77;;;3.40;99.90;;;;;;5032687;28;20181;-76
2022/01/14 09:05:08;;;;;;;18.73;10.53;;;3.40;99.90;;;;;;5030066;28;20174;-78
2022/01/14 09:07:35;;;;;;;19.70;11.13;;;3.40;99.90;;;;;;5013562;28;20186;-79
2022/01/14 09:10:01;;;;;;;17.40;10.00;;;3.50;99.90;;;;;;5032234;28;20178;-78
2022/01/14 09:12:27;;;;;;;18.20;10.70;;;3.40;99.90;;;;;;5029729;28;20230;-73
2022/01/14 09:14:53;;;;;;;16.33;9.93;;;3.40;99.90;;;;;;5048430;28;20205;-76
2022/01/14 09:17:18;;;;;;;16.90;10.13;;;3.40;99.90;;;;;;5016899;28;20187;-80
2022/01/14 09:19:45;;;;;;;17.10;9.30;;;3.50;99.90;;;;;;5050430;28;20169;-77
2022/01/14 09:22:15;;;;;;;19.27;10.90;;;3.40;99.90;;;;;;5033268;28;20169;-76
2022/01/14 09:24:42;;;;;;;15.27;9.33;;;3.60;99.90;;;;;;5033028;28;20185;-79
2022/01/14 09:27:09;;;;;;;18.37;10.97;;;3.50;99.90;;;;;;5032997;28;20564;-74
2022/01/14 09:29:34;;;;;;;15.63;9.77;;;3.50;99.90;;;;;;5049585;28;20638;-77
2022/01/14 09:32:00;;;;;;;18.20;10.83;;;3.60;99.90;;;;;;5032621;28;20324;-74
2022/01/14 09:34:26;;;;;;;15.60;9.73;;;3.60;99.90;;;;;;5042770;28;20555;-79
2022/01/14 09:36:52;;;;;;;17.07;10.17;;;3.70;99.90;;;;;;5030054;28;20181;-76
2022/01/14 09:39:18;;;;;;;17.07;10.93;;;3.70;99.90;;;;;;4996939;28;20170;-78
2022/01/14 09:41:46;;;;;;;21.52;14.50;;;3.70;99.90;;;;;;5019333;28;20442;-80
2022/01/14 09:44:16;;;;;;;16.90;10.73;;;3.70;99.90;;;;;;5012188;28;20236;-76
2022/01/14 09:46:42;;;;;;;19.77;10.77;;;3.70;99.90;;;;;;5043090;28;20649;-78
2022/01/14 09:49:08;;;;;;;19.60;11.00;;;3.80;99.90;;;;;;5010780;28;20277;-76
2022/01/14 09:51:34;;;;;;;16.03;9.63;;;3.90;99.90;;;;;;5011381;28;20182;-77
2022/01/14 09:54:00;;;;;;;16.57;9.80;;;3.90;99.90;;;;;;5021457;28;20200;-75
2022/01/14 09:56:26;;;;;;;16.23;10.03;;;3.90;99.90;;;;;;5040368;28;20542;-76
2022/01/14 09:58:52;;;;;;;17.63;10.63;;;3.90;99.90;;;;;;5018647;28;20302;-76
2022/01/14 10:01:21;;;;;;;21.93;10.90;;;4.00;99.90;;;;;;5015094;28;20181;-79
2022/01/14 10:04:02;;;;;;;18.33;10.87;;;4.00;99.90;;;;;;5035980;28;20188;-77
2022/01/14 10:06:55;;;;;;;17.70;9.17;;;4.10;99.90;;;;;;5030882;28;20189;-77
2022/01/14 10:09:24;;;;;;;17.53;10.37;;;4.10;99.90;;;;;;5018661;28;20173;-78
2022/01/14 10:12:05;;;;;;;14.13;9.73;;;4.10;99.90;;;;;;5041600;28;20182;-76
2022/01/14 10:14:33;;;;;;;17.13;10.70;;;4.20;99.90;;;;;;5044085;28;20195;-77
2022/01/14 10:17:00;;;;;;;18.23;10.77;;;4.20;99.90;;;;;;5023325;28;20203;-78
2022/01/14 10:19:29;;;;;;;14.80;9.83;;;4.30;99.90;;;;;;5029602;28;20181;-77
2022/01/14 10:21:55;;;;;;;16.80;10.20;;;4.40;99.90;;;;;;5018338;28;20637;-76
2022/01/14 10:24:29;;;;;;;16.80;9.77;;;4.50;99.90;;;;;;5040745;28;20177;-78
2022/01/14 10:27:03;;;;;;;15.60;10.37;;;4.50;99.90;;;;;;5028485;28;20181;-78
2022/01/14 10:29:38;;;;;;;17.60;10.83;;;4.50;99.90;;;;;;5019466;28;20188;-77
2022/01/14 10:32:08;;;;;;;19.13;11.10;;;4.60;99.90;;;;;;5030796;28;20181;-77
2022/01/14 10:34:35;;;;;;;17.47;9.87;;;4.60;99.90;;;;;;5032165;28;20229;-77
2022/01/14 10:37:20;;;;;;;18.60;9.83;;;4.60;99.90;;;;;;5022361;28;20649;-79
2022/01/14 10:39:49;;;;;;;16.50;9.47;;;4.70;99.90;;;;;;5018523;28;20205;-79
2022/01/14 10:42:30;;;;;;;17.20;10.33;;;4.80;99.90;;;;;;5035468;28;20178;-77
2022/01/14 10:45:17;;;;;;;16.83;10.13;;;4.90;99.90;;;;;;5017747;28;20174;-75
2022/01/14 10:47:51;;;;;;;19.60;9.80;;;5.10;99.90;;;;;;5017432;28;20319;-79
2022/01/14 10:50:17;;;;;;;15.27;9.23;;;5.10;99.90;;;;;;5048428;28;20534;-76
2022/01/14 10:52:49;;;;;;;13.20;9.33;;;5.20;99.90;;;;;;5048673;28;20178;-76
2022/01/14 10:55:37;;;;;;;17.00;9.07;;;5.20;99.90;;;;;;5046411;28;20255;-76
2022/01/14 10:58:07;;;;;;;18.23;10.00;;;5.20;99.90;;;;;;5032751;28;20188;-74
2022/01/14 11:00:46;;;;;;;14.57;9.37;;;5.20;99.90;;;;;;5046902;28;20178;-76
2022/01/14 11:03:12;;;;;;;14.23;9.53;;;5.30;99.90;;;;;;5023715;28;20174;-75
2022/01/14 11:05:38;;;;;;;16.87;9.20;;;5.30;99.90;;;;;;5038272;28;20181;-76
2022/01/14 11:08:06;;;;;;;16.67;9.63;;;5.40;99.90;;;;;;5048544;28;20193;-78
2022/01/14 11:10:34;;;;;;;17.83;9.70;;;5.50;99.90;;;;;;5033953;28;20261;-78
2022/01/14 11:13:02;;;;;;;13.30;8.33;;;5.60;99.90;;;;;;5031790;28;20186;-74
2022/01/14 11:15:31;;;;;;;16.47;10.07;;;5.70;99.90;;;;;;5032604;28;20206;-74
2022/01/14 11:18:00;;;;;;;16.80;9.90;;;5.70;99.90;;;;;;5044276;28;20177;-78
2022/01/14 11:20:31;;;;;;;15.70;9.43;;;5.80;99.90;;;;;;5042150;28;20199;-78
2022/01/14 11:23:16;;;;;;;13.87;9.00;;;5.90;99.90;;;;;;5036360;28;20633;-74
2022/01/14 11:26:07;;;;;;;11.93;8.43;;;6.00;99.90;;;;;;5051600;28;20185;-78
2022/01/14 11:28:36;;;;;;;14.73;8.87;;;6.10;99.90;;;;;;5052680;28;20264;-79
2022/01/14 11:31:33;;;;;;;16.43;9.97;;;6.20;99.90;;;;;;5015789;28;20305;-79
2022/01/14 11:34:02;;;;;;;14.23;9.77;;;6.30;99.90;;;;;;5029687;28;20244;-78
2022/01/14 11:36:49;;;;;;;14.97;9.93;;;6.30;99.90;;;;;;5024593;28;20359;-80
2022/01/14 11:39:23;;;;;;;16.37;10.00;;;6.40;99.90;;;;;;5018321;28;20261;-79
2022/01/14 11:41:55;;;;;;;14.33;9.37;;;6.40;99.90;;;;;;5046135;28;20196;-76
2022/01/14 11:47:43;;;;;;;15.53;9.23;;;6.60;99.90;;;;;;5037321;28;20177;-78
2022/01/14 11:50:24;;;;;;;12.83;8.53;;;6.60;99.90;;;;;;5034923;28;20860;-74
2022/01/14 11:52:50;;;;;;;15.73;8.37;;;6.70;99.90;;;;;;5029581;28;20559;-78
2022/01/14 11:55:35;;;;;;;17.27;9.37;;;6.70;99.90;;;;;;4998580;28;20217;-76
2022/01/14 11:58:04;;;;;;;15.40;8.93;;;6.80;99.90;;;;;;5043398;28;20181;-79
2022/01/14 12:00:40;;;;;;;16.00;9.53;;;6.90;99.90;;;;;;5030719;28;20186;-76
2022/01/14 12:03:15;;;;;;;15.03;9.30;;;6.90;99.90;;;;;;5004804;28;20292;-75
2022/01/14 12:05:50;;;;;;;14.93;9.47;;;7.10;99.90;;;;;;5051553;28;20192;-77
2022/01/14 12:08:19;;;;;;;15.13;9.23;;;7.20;99.90;;;;;;5033629;28;20516;-77
2022/01/14 12:10:56;;;;;;;16.17;9.57;;;7.30;99.90;;;;;;5051795;28;20180;-75
2022/01/14 12:16:08;;;;;;;14.77;9.63;;;7.40;99.90;;;;;;5050576;28;20319;-77
2022/01/14 12:19:07;;;;;;;16.77;8.67;;;7.50;99.90;;;;;;5050198;28;20166;-74
2022/01/14 12:21:49;;;;;;;14.67;9.20;;;7.60;99.90;;;;;;5050483;28;20195;-74
2022/01/14 12:24:15;;;;;;;13.57;8.90;;;7.70;99.90;;;;;;5033670;28;20225;-73
2022/01/14 12:26:47;;;;;;;16.50;9.53;;;7.80;99.90;;;;;;5034156;28;20602;-77
2022/01/14 12:29:14;;;;;;;14.87;9.93;;;7.90;99.90;;;;;;5047821;28;20264;-75
2022/01/14 12:32:03;;;;;;;15.23;9.27;;;7.90;99.90;;;;;;5036169;28;20260;-75
2022/01/14 12:34:29;;;;;;;13.37;8.53;;;8.00;99.90;;;;;;5038916;28;20200;-74
2022/01/14 12:36:55;;;;;;;12.10;8.63;;;8.00;99.90;;;;;;5031631;28;20180;-76
2022/01/14 12:39:21;;;;;;;12.10;7.97;;;8.10;99.90;;;;;;5042791;28;20642;-78
2022/01/14 12:41:52;;;;;;;12.03;8.20;;;8.10;99.90;;;;;;5043743;28;20200;-74
2022/01/14 12:44:18;;;;;;;15.20;9.20;;;8.20;99.90;;;;;;5033361;28;20192;-75
2022/01/14 12:49:22;;;;;;;13.77;8.40;;;8.30;99.90;;;;;;5027006;28;20183;-74
2022/01/14 12:52:03;;;;;;;12.20;8.80;;;8.30;99.90;;;;;;5018596;28;20185;-77
2022/01/14 12:54:31;;;;;;;12.83;8.57;;;8.30;99.90;;;;;;5031416;28;20201;-73
2022/01/14 12:56:57;;;;;;;13.17;8.23;;;8.30;99.90;;;;;;5011782;28;20174;-74
2022/01/14 12:59:25;;;;;;;12.07;7.93;;;8.40;99.90;;;;;;5036199;28;20584;-76
2022/01/14 13:01:54;;;;;;;17.23;9.30;;;8.50;99.90;;;;;;5032066;28;20182;-76
2022/01/14 13:04:22;;;;;;;13.77;8.73;;;8.40;99.90;;;;;;5029566;28;20676;-74
2022/01/14 13:06:56;;;;;;;16.47;9.43;;;8.60;99.90;;;;;;5028753;28;20341;-76
2022/01/14 13:09:28;;;;;;;11.10;7.53;;;8.60;99.90;;;;;;5035470;28;20235;-75
2022/01/14 13:12:14;;;;;;;15.83;8.77;;;8.60;99.90;;;;;;5033046;28;20609;-75
2022/01/14 13:14:48;;;;;;;17.47;9.27;;;8.70;99.90;;;;;;5029497;28;20214;-75
2022/01/14 13:17:20;;;;;;;14.03;9.13;;;8.80;99.90;;;;;;5048302;28;20191;-76
2022/01/14 13:19:47;;;;;;;17.13;9.47;;;8.80;99.90;;;;;;5034404;28;20187;-74
2022/01/14 13:22:16;;;;;;;12.63;9.00;;;8.80;99.90;;;;;;5033079;28;20181;-77
2022/01/14 13:24:44;;;;;;;16.13;9.37;;;8.80;99.90;;;;;;5033212;28;20197;-72
2022/01/14 13:27:20;;;;;;;13.90;9.30;;;8.80;99.90;;;;;;5044437;28;20264;-74
2022/01/14 13:29:52;;;;;;;13.43;9.53;;;8.70;99.90;;;;;;5026640;28;20181;-76